createdAt,value
2023-01-08T00:00:36.563Z,16.08
2023-01-08T00:03:39.471Z,17.45
2023-01-08T00:06:41.704Z,16.65
2023-01-08T00:09:44.015Z,16.20
2023-01-08T00:12:46.119Z,16.05
2023-01-08T00:15:48.293Z,16.52
2023-01-08T00:18:50.452Z,16.63
2023-01-08T00:21:52.607Z,15.60
2023-01-08T00:24:54.839Z,14.52
2023-01-08T00:27:56.957Z,14.45
2023-01-08T00:31:00.302Z,13.87
2023-01-08T00:34:03.643Z,12.90
2023-01-08T00:37:05.746Z,11.65
2023-01-08T00:40:08.235Z,8.07
2023-01-08T00:43:10.462Z,9.23
2023-01-08T00:46:12.714Z,11.40
2023-01-08T00:49:15.019Z,12.38
2023-01-08T00:52:17.135Z,11.73
2023-01-08T00:55:19.247Z,9.20
2023-01-08T00:58:21.370Z,10.18
2023-01-08T01:01:23.681Z,10.70
2023-01-08T01:04:26.588Z,9.30
2023-01-08T01:07:28.716Z,11.80
2023-01-08T01:10:30.920Z,9.93
2023-01-08T01:13:33.123Z,10.43
2023-01-08T01:16:36.577Z,8.50
2023-01-08T01:19:38.968Z,9.30
2023-01-08T01:22:41.324Z,8.25
2023-01-08T01:25:45.697Z,9.82
2023-01-08T01:28:48.995Z,10.37
2023-01-08T01:31:51.143Z,10.85
2023-01-08T01:34:53.337Z,11.15
2023-01-08T01:37:55.607Z,10.53
2023-01-08T01:40:58.070Z,6.95
2023-01-08T01:44:20.216Z,10.10
2023-01-08T01:47:22.368Z,9.32
2023-01-08T01:50:32.968Z,9.13
2023-01-08T01:53:35.682Z,9.65
2023-01-08T01:56:37.913Z,9.68
2023-01-08T01:59:40.312Z,7.00
2023-01-08T02:02:42.660Z,6.83
2023-01-08T02:05:56.214Z,10.05
2023-01-08T02:09:03.494Z,7.93
2023-01-08T02:12:16.922Z,7.53
2023-01-08T02:15:25.004Z,7.57
2023-01-08T02:18:29.443Z,10.17
2023-01-08T02:21:44.802Z,10.18
2023-01-08T02:24:54.119Z,9.50
2023-01-08T02:27:57.248Z,8.80
2023-01-08T02:30:59.876Z,10.05
2023-01-08T02:34:02.194Z,9.15
2023-01-08T02:37:04.493Z,9.88
2023-01-08T02:40:11.698Z,9.77
2023-01-08T02:43:36.236Z,9.60
2023-01-08T02:46:39.686Z,10.25
2023-01-08T02:49:43.311Z,10.65
2023-01-08T02:52:52.797Z,9.87
2023-01-08T02:55:59.495Z,9.50
2023-01-08T02:59:02.325Z,9.32
2023-01-08T03:02:05.056Z,8.88
2023-01-08T03:05:14.818Z,9.53
2023-01-08T03:08:18.579Z,9.47
2023-01-08T03:11:22.102Z,9.75
2023-01-08T03:14:29.877Z,9.90
2023-01-08T03:17:52.255Z,9.85
2023-01-08T03:20:54.955Z,9.50
2023-01-08T03:23:57.161Z,9.75
2023-01-08T03:27:00.607Z,9.13
2023-01-08T03:30:03.668Z,10.70
2023-01-08T03:33:06.437Z,10.33
2023-01-08T03:36:09.108Z,10.15
2023-01-08T03:39:16.852Z,9.88
2023-01-08T03:42:19.961Z,10.73
2023-01-08T03:45:23.037Z,9.40
2023-01-08T03:48:25.871Z,9.35
2023-01-08T03:51:28.097Z,9.88
2023-01-08T03:54:31.558Z,9.85
2023-01-08T03:57:33.723Z,9.67
2023-01-08T04:00:35.875Z,9.13
2023-01-08T04:03:38.021Z,9.90
2023-01-08T04:06:40.283Z,9.48
2023-01-08T04:09:42.435Z,9.95
2023-01-08T04:12:44.722Z,9.33
2023-01-08T04:15:50.639Z,9.27
2023-01-08T04:18:52.886Z,9.57
2023-01-08T04:21:55.156Z,9.35
2023-01-08T04:24:57.277Z,9.95
2023-01-08T04:27:59.452Z,9.67
2023-01-08T04:31:10.802Z,10.40
2023-01-08T04:34:13.153Z,10.10
2023-01-08T04:37:15.264Z,9.98
2023-01-08T04:40:17.412Z,10.50
2023-01-08T04:43:19.569Z,10.25
2023-01-08T04:46:21.894Z,9.55
2023-01-08T04:49:24.040Z,10.15
2023-01-08T04:52:27.731Z,9.80
2023-01-08T04:55:29.881Z,9.68
2023-01-08T04:58:33.365Z,9.35
2023-01-08T05:01:35.616Z,10.25
2023-01-08T05:04:37.756Z,10.17
2023-01-08T05:07:39.848Z,10.50
2023-01-08T05:10:41.997Z,10.23
2023-01-08T05:13:44.133Z,10.38
2023-01-08T05:16:46.328Z,10.97
2023-01-08T05:19:48.649Z,10.73
2023-01-08T05:22:50.852Z,11.38
2023-01-08T05:25:53.003Z,10.68
2023-01-08T05:28:55.148Z,11.93
2023-01-08T05:31:57.296Z,13.20
2023-01-08T05:34:59.463Z,14.73
2023-01-08T05:38:01.611Z,13.82
2023-01-08T05:41:04.340Z,12.13
2023-01-08T05:44:06.533Z,10.97
2023-01-08T05:47:08.664Z,11.03
2023-01-08T05:50:10.851Z,10.48
2023-01-08T05:53:12.948Z,9.95
2023-01-08T05:56:15.130Z,10.82
2023-01-08T05:59:17.319Z,11.43
2023-01-08T06:02:19.551Z,11.70
2023-01-08T06:05:21.657Z,11.30
2023-01-08T06:08:24.456Z,11.15
2023-01-08T06:11:26.614Z,10.63
2023-01-08T06:14:28.739Z,11.07
2023-01-08T06:17:30.833Z,20.50
2023-01-08T06:20:32.957Z,16.25
2023-01-08T06:23:35.218Z,11.23
2023-01-08T06:26:37.362Z,10.43
2023-01-08T06:29:39.546Z,10.88
2023-01-08T06:32:41.657Z,11.27
2023-01-08T06:35:43.877Z,12.27
2023-01-08T06:38:46.208Z,14.00
2023-01-08T06:41:48.380Z,12.48
2023-01-08T06:44:50.579Z,12.55
2023-01-08T06:47:52.756Z,12.40
2023-01-08T06:50:54.872Z,12.30
2023-01-08T06:53:57.004Z,13.40
2023-01-08T06:56:59.115Z,13.40
2023-01-08T07:00:02.586Z,12.45
2023-01-08T07:03:06.509Z,12.63
2023-01-08T07:06:16.255Z,12.23
2023-01-08T07:09:18.454Z,12.10
2023-01-08T07:12:20.674Z,12.70
2023-01-08T07:15:22.790Z,11.77
2023-01-08T07:18:24.993Z,12.07
2023-01-08T07:21:28.020Z,12.02
2023-01-08T07:24:30.183Z,12.75
2023-01-08T07:27:32.303Z,11.13
2023-01-08T07:30:34.557Z,12.27
2023-01-08T07:33:36.810Z,11.80
2023-01-08T07:36:38.908Z,11.88
2023-01-08T07:39:41.110Z,11.32
2023-01-08T07:42:43.215Z,12.10
2023-01-08T07:45:45.401Z,14.53
2023-01-08T07:48:47.573Z,9.75
2023-01-08T07:51:50.023Z,8.82
2023-01-08T07:54:52.542Z,11.25
2023-01-08T07:57:54.711Z,13.27
2023-01-08T08:00:59.147Z,13.40
2023-01-08T08:04:01.451Z,12.80
2023-01-08T08:07:03.540Z,14.70
2023-01-08T08:10:06.029Z,15.53
2023-01-08T08:13:08.586Z,13.82
2023-01-08T08:16:11.366Z,15.52
2023-01-08T08:19:13.629Z,14.95
2023-01-08T08:22:15.861Z,16.13
2023-01-08T08:25:18.108Z,15.60
2023-01-08T08:28:20.357Z,13.35
2023-01-08T08:31:22.514Z,14.43
2023-01-08T08:34:24.698Z,15.23
2023-01-08T08:37:26.912Z,16.50
2023-01-08T08:40:29.108Z,16.38
2023-01-08T08:43:31.663Z,16.17
2023-01-08T08:46:33.818Z,15.40
2023-01-08T08:49:40.025Z,15.30
2023-01-08T08:52:44.909Z,15.05
2023-01-08T08:55:47.108Z,18.20
2023-01-08T08:58:50.713Z,19.73
2023-01-08T09:01:53.211Z,18.20
2023-01-08T09:04:55.406Z,17.02
2023-01-08T09:07:57.676Z,18.77
2023-01-08T09:11:02.070Z,18.80
2023-01-08T09:14:04.190Z,19.75
2023-01-08T09:17:06.291Z,20.23
2023-01-08T09:20:08.664Z,19.97
2023-01-08T09:23:10.919Z,20.47
2023-01-08T09:26:13.065Z,19.70
2023-01-08T09:29:15.301Z,21.23
2023-01-08T09:32:17.642Z,20.77
2023-01-08T09:35:19.710Z,19.53
2023-01-08T09:38:21.829Z,17.77
2023-01-08T09:41:44.596Z,19.48
2023-01-08T09:44:48.695Z,22.65
2023-01-08T09:47:51.000Z,22.93
2023-01-08T09:50:53.401Z,22.52
2023-01-08T09:53:56.424Z,21.15
2023-01-08T09:56:59.308Z,20.87
2023-01-08T10:00:01.567Z,20.17
2023-01-08T10:03:04.215Z,21.77
2023-01-08T10:06:13.790Z,20.05
2023-01-08T10:09:16.035Z,21.87
2023-01-08T10:12:38.468Z,21.88
2023-01-08T10:15:41.404Z,23.20
2023-01-08T10:18:43.725Z,22.75
2023-01-08T10:21:46.424Z,21.23
2023-01-08T10:24:48.491Z,20.83
2023-01-08T10:27:52.025Z,21.02
2023-01-08T10:30:58.459Z,24.52
2023-01-08T10:34:09.505Z,24.90
2023-01-08T10:37:20.765Z,21.27
2023-01-08T10:40:45.534Z,20.10
2023-01-08T10:43:55.358Z,20.10
2023-01-08T10:47:00.213Z,19.27
2023-01-08T10:50:03.610Z,22.10
2023-01-08T10:53:06.353Z,20.60
2023-01-08T10:56:18.572Z,21.30
2023-01-08T10:59:21.546Z,20.05
2023-01-08T11:02:29.976Z,20.50
2023-01-08T11:05:39.359Z,21.93
2023-01-08T11:08:51.503Z,22.35
2023-01-08T11:11:53.816Z,22.77
2023-01-08T11:14:56.573Z,23.23
2023-01-08T11:18:17.834Z,26.43
2023-01-08T11:21:25.108Z,24.55
2023-01-08T11:24:29.075Z,23.95
2023-01-08T11:27:33.385Z,24.42
2023-01-08T11:30:36.436Z,24.40
2023-01-08T11:33:39.538Z,25.95
2023-01-08T11:36:47.364Z,27.25
2023-01-08T11:39:50.628Z,25.73
2023-01-08T11:43:11.660Z,26.40
2023-01-08T11:46:21.538Z,27.67
2023-01-08T11:49:31.671Z,30.63
2023-01-08T11:52:33.797Z,29.33
2023-01-08T11:55:41.350Z,29.03
2023-01-08T11:58:52.632Z,29.73
2023-01-08T12:01:54.893Z,31.63
2023-01-08T12:05:35.698Z,31.45
2023-01-08T12:08:55.009Z,33.47
2023-01-08T12:12:05.797Z,31.67
2023-01-08T12:15:17.319Z,32.03
2023-01-08T12:18:29.824Z,31.92
2023-01-08T12:21:33.064Z,32.55
2023-01-08T12:24:37.948Z,32.70
2023-01-08T12:28:02.511Z,32.05
2023-01-08T12:31:25.813Z,31.15
2023-01-08T12:34:46.868Z,30.52
2023-01-08T12:37:52.621Z,28.77
2023-01-08T12:41:03.958Z,29.67
2023-01-08T12:44:10.286Z,31.17
2023-01-08T12:47:16.628Z,31.60
2023-01-08T12:50:21.780Z,31.00
2023-01-08T12:53:27.306Z,30.95
2023-01-08T12:56:31.967Z,30.08
2023-01-08T12:59:46.638Z,32.58
2023-01-08T13:02:57.057Z,32.37
2023-01-08T13:06:10.356Z,32.05
2023-01-08T13:09:18.592Z,32.78
2023-01-08T13:12:26.457Z,36.10
2023-01-08T13:15:30.459Z,34.53
2023-01-08T13:18:32.765Z,35.27
2023-01-08T13:21:34.970Z,36.15
2023-01-08T13:24:38.452Z,37.10
2023-01-08T13:27:40.704Z,33.15
2023-01-08T13:30:43.180Z,34.70
2023-01-08T13:33:47.851Z,35.55
2023-01-08T13:36:57.359Z,35.20
2023-01-08T13:39:59.516Z,34.47
2023-01-08T13:43:02.622Z,34.57
2023-01-08T13:46:09.006Z,33.30
2023-01-08T13:49:26.783Z,33.58
2023-01-08T13:52:45.521Z,35.80
2023-01-08T13:56:13.957Z,36.07
2023-01-08T13:59:19.581Z,35.25
2023-01-08T14:02:33.156Z,35.78
2023-01-08T14:05:37.179Z,36.67
2023-01-08T14:08:56.666Z,34.03
2023-01-08T14:11:59.745Z,38.15
2023-01-08T14:15:04.401Z,35.10
2023-01-08T14:18:06.621Z,42.53
2023-01-08T14:21:08.908Z,38.65
2023-01-08T14:24:15.185Z,36.67
2023-01-08T14:27:28.167Z,42.50
2023-01-08T14:30:30.568Z,39.43
2023-01-08T14:33:36.890Z,38.63
2023-01-08T14:36:39.587Z,35.92
2023-01-08T14:39:42.256Z,37.53
2023-01-08T14:42:53.564Z,35.73
2023-01-08T14:45:55.792Z,35.72
2023-01-08T14:48:58.305Z,39.80
2023-01-08T14:52:01.549Z,37.65
2023-01-08T14:55:03.901Z,40.07
2023-01-08T14:58:12.063Z,38.97
2023-01-08T15:01:18.024Z,38.88
2023-01-08T15:04:21.500Z,32.65
2023-01-08T15:07:27.738Z,38.37
2023-01-08T15:10:30.257Z,39.00
2023-01-08T15:13:38.133Z,37.45
2023-01-08T15:16:44.879Z,34.25
2023-01-08T15:19:50.194Z,36.57
2023-01-08T15:22:52.370Z,37.13
2023-01-08T15:25:55.225Z,34.90
2023-01-08T15:29:01.627Z,36.20
2023-01-08T15:32:16.063Z,36.72
2023-01-08T15:35:18.714Z,37.17
2023-01-08T15:38:21.945Z,34.25
2023-01-08T15:41:42.589Z,32.63
2023-01-08T15:44:44.831Z,33.90
2023-01-08T15:47:47.031Z,33.80
2023-01-08T15:50:49.385Z,34.90
2023-01-08T15:53:51.500Z,34.95
2023-01-08T15:56:53.571Z,33.28
2023-01-08T15:59:56.126Z,34.30
2023-01-08T16:03:00.033Z,36.38
2023-01-08T16:06:06.944Z,34.85
2023-01-08T16:09:09.156Z,34.53
2023-01-08T16:12:11.239Z,36.38
2023-01-08T16:15:14.047Z,40.00
2023-01-08T16:18:16.379Z,40.00
2023-01-08T16:21:18.514Z,37.50
2023-01-08T16:24:20.711Z,34.60
2023-01-08T16:27:22.862Z,37.10
2023-01-08T16:30:30.721Z,36.25
2023-01-08T16:33:32.959Z,35.53
2023-01-08T16:36:35.976Z,41.47
2023-01-08T16:39:38.567Z,40.35
2023-01-08T16:42:41.461Z,37.63
2023-01-08T16:45:47.389Z,39.07
2023-01-08T16:48:50.640Z,37.97
2023-01-08T16:51:53.131Z,38.80
2023-01-08T16:54:55.349Z,39.30
2023-01-08T16:57:57.758Z,37.33
2023-01-08T17:01:00.571Z,35.33
2023-01-08T17:04:03.066Z,35.88
2023-01-08T17:07:05.850Z,34.22
2023-01-08T17:10:08.387Z,35.50
2023-01-08T17:13:10.777Z,36.80
2023-01-08T17:16:13.864Z,37.22
2023-01-08T17:19:16.368Z,34.85
2023-01-08T17:22:18.851Z,34.47
2023-01-08T17:25:20.960Z,33.13
2023-01-08T17:28:28.440Z,33.58
2023-01-08T17:31:30.614Z,35.65
2023-01-08T17:34:33.196Z,33.23
2023-01-08T17:37:35.505Z,34.40
2023-01-08T17:40:37.727Z,32.85
2023-01-08T17:43:39.917Z,32.42
2023-01-08T17:46:44.486Z,30.77
2023-01-08T17:49:50.131Z,30.53
2023-01-08T17:52:52.852Z,31.67
2023-01-08T17:55:55.048Z,31.48
2023-01-08T17:58:57.218Z,33.83
2023-01-08T18:01:59.901Z,33.23
2023-01-08T18:05:02.222Z,32.28
2023-01-08T18:08:04.675Z,29.50
2023-01-08T18:11:07.762Z,31.13
2023-01-08T18:14:10.941Z,31.30
2023-01-08T18:17:13.152Z,34.80
2023-01-08T18:20:15.464Z,32.15
2023-01-08T18:23:18.107Z,32.90
2023-01-08T18:26:20.904Z,33.80
2023-01-08T18:29:23.111Z,34.88
2023-01-08T18:32:26.232Z,33.28
2023-01-08T18:35:28.458Z,33.10
2023-01-08T18:38:30.571Z,33.60
2023-01-08T18:41:51.463Z,30.92
2023-01-08T18:44:55.483Z,29.85
2023-01-08T18:47:57.564Z,30.58
2023-01-08T18:51:05.735Z,27.53
2023-01-08T18:54:08.407Z,29.02
2023-01-08T18:57:10.972Z,28.80
2023-01-08T19:00:13.649Z,27.98
2023-01-08T19:03:15.986Z,27.93
2023-01-08T19:06:18.488Z,26.35
2023-01-08T19:09:20.963Z,29.40
2023-01-08T19:12:27.177Z,27.90
2023-01-08T19:15:29.749Z,30.40
2023-01-08T19:18:31.890Z,30.40
2023-01-08T19:21:34.113Z,30.58
2023-01-08T19:24:37.124Z,34.13
2023-01-08T19:27:39.471Z,34.20
2023-01-08T19:30:42.384Z,29.97
2023-01-08T19:33:46.342Z,29.27
2023-01-08T19:36:48.593Z,25.92
2023-01-08T19:39:50.868Z,28.23
2023-01-08T19:43:11.802Z,27.23
2023-01-08T19:46:15.477Z,30.73
2023-01-08T19:49:18.026Z,28.20
2023-01-08T19:52:20.393Z,27.03
2023-01-08T19:55:22.841Z,28.47
2023-01-08T19:58:28.798Z,26.27
2023-01-08T20:01:32.561Z,26.92
2023-01-08T20:04:38.833Z,26.20
2023-01-08T20:07:41.209Z,26.57
2023-01-08T20:10:43.441Z,25.30
2023-01-08T20:13:45.755Z,23.77
2023-01-08T20:16:47.964Z,24.75
2023-01-08T20:19:50.336Z,23.90
2023-01-08T20:22:52.665Z,26.13
2023-01-08T20:25:54.873Z,26.35
2023-01-08T20:28:58.611Z,27.37
2023-01-08T20:32:01.371Z,26.03
2023-01-08T20:35:04.632Z,25.67
2023-01-08T20:38:07.048Z,23.92
2023-01-08T20:41:09.781Z,25.00
2023-01-08T20:44:12.373Z,24.27
2023-01-08T20:47:14.704Z,25.00
2023-01-08T20:50:20.380Z,23.25
2023-01-08T20:53:23.158Z,23.27
2023-01-08T20:56:25.219Z,23.50
2023-01-08T20:59:28.003Z,24.08
2023-01-08T21:02:30.179Z,25.65
2023-01-08T21:05:33.628Z,25.85
2023-01-08T21:08:36.079Z,25.48
2023-01-08T21:11:39.302Z,24.73
2023-01-08T21:14:41.414Z,23.20
2023-01-08T21:17:43.622Z,23.38
2023-01-08T21:20:45.812Z,22.67
2023-01-08T21:23:48.388Z,23.67
2023-01-08T21:26:50.546Z,23.48
2023-01-08T21:29:52.669Z,22.35
2023-01-08T21:32:54.732Z,24.35
2023-01-08T21:35:56.823Z,23.60
2023-01-08T21:38:59.822Z,22.35
2023-01-08T21:42:20.823Z,22.48
2023-01-08T21:45:26.067Z,23.05
2023-01-08T21:48:29.009Z,21.97
2023-01-08T21:51:50.008Z,21.43
2023-01-08T21:54:53.059Z,21.48
2023-01-08T21:57:55.200Z,21.60
2023-01-08T22:00:57.628Z,20.58
2023-01-08T22:03:59.747Z,20.87
2023-01-08T22:07:01.932Z,20.33
2023-01-08T22:10:05.588Z,19.67
2023-01-08T22:13:08.173Z,19.55
2023-01-08T22:16:10.694Z,19.67
2023-01-08T22:19:12.992Z,18.10
2023-01-08T22:22:15.349Z,18.15
2023-01-08T22:25:17.546Z,18.30
2023-01-08T22:28:19.715Z,18.50
2023-01-08T22:31:21.949Z,19.03
2023-01-08T22:34:24.415Z,18.58
2023-01-08T22:37:26.643Z,17.38
2023-01-08T22:40:28.699Z,17.88
2023-01-08T22:43:30.917Z,17.57
2023-01-08T22:46:33.353Z,18.17
2023-01-08T22:49:36.265Z,17.52
2023-01-08T22:52:39.076Z,17.17
2023-01-08T22:55:41.767Z,16.93
2023-01-08T22:58:45.454Z,17.17
2023-01-08T23:01:47.936Z,17.35
2023-01-08T23:04:53.712Z,16.92
2023-01-08T23:07:55.825Z,17.30
2023-01-08T23:10:58.115Z,16.00
2023-01-08T23:14:00.914Z,16.67
2023-01-08T23:17:03.056Z,17.30
2023-01-08T23:20:05.481Z,16.20
2023-01-08T23:23:07.687Z,16.15
2023-01-08T23:26:09.784Z,15.90
2023-01-08T23:29:12.157Z,16.08
2023-01-08T23:32:15.679Z,15.50
2023-01-08T23:35:17.948Z,15.73
2023-01-08T23:38:20.491Z,15.30
2023-01-08T23:41:25.636Z,14.52
2023-01-08T23:44:27.828Z,13.82
2023-01-08T23:47:29.978Z,13.00
2023-01-08T23:50:32.188Z,13.20
2023-01-08T23:53:34.444Z,13.37
2023-01-08T23:56:36.893Z,13.50
2023-01-08T23:59:39.245Z,13.30
